Terminal Aerodrome Forecast
Issued by NWS Sterling, VA

Current Version | Previous Version | Text Only | Print | Product List | Glossary Off
Versions: 1 2 3 4 5 6 7 8 9 10 11 12 13 14 15 16 17 18 19 20 21 22

790
FTUS41 KLWX 170854 AAA
TAFDCA
TAF AMD
KDCA 170854Z 1709/1812 VRB03KT P6SM BKN090 OVC120
     FM171700 15006KT P6SM SCT050 BKN080
     FM180300 16006KT P6SM FEW045 SCT250=

USA.gov is the U.S. government's official web portal to all federal, state and local government web resources and services.